createdAt,value
2023-01-04T00:01:54.396Z,23.13
2023-01-04T00:04:21.186Z,23.50
2023-01-04T00:06:47.914Z,24.40
2023-01-04T00:09:14.622Z,24.20
2023-01-04T00:11:41.318Z,26.13
2023-01-04T00:14:10.568Z,25.45
2023-01-04T00:16:37.350Z,26.48
2023-01-04T00:19:04.110Z,27.58
2023-01-04T00:21:31.963Z,28.83
2023-01-04T00:24:00.695Z,27.55
2023-01-04T00:26:31.645Z,24.70
2023-01-04T00:29:05.916Z,24.35
2023-01-04T00:31:33.360Z,25.13
2023-01-04T00:34:01.702Z,22.75
2023-01-04T00:36:28.792Z,23.33
2023-01-04T00:39:08.574Z,24.95
2023-01-04T00:44:28.982Z,21.88
2023-01-04T00:46:55.841Z,21.60
2023-01-04T00:49:22.544Z,21.55
2023-01-04T00:51:49.581Z,22.08
2023-01-04T00:54:16.848Z,20.90
2023-01-04T00:56:46.989Z,20.80
2023-01-04T00:59:15.511Z,23.85
2023-01-04T01:01:42.713Z,21.63
2023-01-04T01:04:12.789Z,23.00
2023-01-04T01:06:41.273Z,23.30
2023-01-04T01:09:09.992Z,25.17
2023-01-04T01:11:38.413Z,25.58
2023-01-04T01:14:05.290Z,26.08
2023-01-04T01:16:53.673Z,26.70
2023-01-04T01:19:18.642Z,23.90
2023-01-04T01:21:45.375Z,25.00
2023-01-04T01:24:16.860Z,23.52
2023-01-04T01:26:43.543Z,23.25
2023-01-04T01:29:10.273Z,22.88
2023-01-04T01:31:37.095Z,26.17
2023-01-04T01:34:04.228Z,25.85
2023-01-04T01:36:30.941Z,26.50
2023-01-04T01:38:57.605Z,23.25
2023-01-04T01:41:34.548Z,24.33
2023-01-04T01:44:04.744Z,22.60
2023-01-04T01:46:41.911Z,23.63
2023-01-04T01:49:34.351Z,24.35
2023-01-04T01:52:05.353Z,20.85
2023-01-04T01:54:44.478Z,23.77
2023-01-04T01:57:15.255Z,22.92
2023-01-04T01:59:43.131Z,18.70
2023-01-04T02:02:11.271Z,22.67
2023-01-04T02:04:40.883Z,21.25
2023-01-04T02:07:08.204Z,19.98
2023-01-04T02:09:35.540Z,22.67
2023-01-04T02:12:02.240Z,22.52
2023-01-04T02:14:29.358Z,20.55
2023-01-04T02:16:59.247Z,24.63
2023-01-04T02:19:38.005Z,25.35
2023-01-04T02:22:32.799Z,22.80
2023-01-04T02:25:24.409Z,25.45
2023-01-04T02:28:03.240Z,24.25
2023-01-04T02:30:45.115Z,28.73
2023-01-04T02:33:26.398Z,23.90
2023-01-04T02:36:08.210Z,25.10
2023-01-04T02:38:42.794Z,24.70
2023-01-04T02:41:15.923Z,24.27
2023-01-04T02:44:11.959Z,26.10
2023-01-04T02:46:44.143Z,26.25
2023-01-04T02:49:29.618Z,25.90
2023-01-04T02:51:56.311Z,27.65
2023-01-04T02:54:27.278Z,26.35
2023-01-04T02:57:04.889Z,25.35
2023-01-04T02:59:45.096Z,25.13
2023-01-04T03:03:08.012Z,25.58
2023-01-04T03:06:15.051Z,23.25
2023-01-04T03:08:41.693Z,22.60
2023-01-04T03:11:32.409Z,23.00
2023-01-04T03:14:32.032Z,22.85
2023-01-04T03:17:03.701Z,25.90
2023-01-04T03:19:50.492Z,22.35
2023-01-04T03:22:39.213Z,26.00
2023-01-04T03:25:27.043Z,24.30
2023-01-04T03:31:04.911Z,26.65
2023-01-04T03:33:50.569Z,23.45
2023-01-04T03:36:26.222Z,25.00
2023-01-04T03:39:18.345Z,23.48
2023-01-04T03:42:07.554Z,21.00
2023-01-04T03:45:01.705Z,24.33
2023-01-04T03:47:56.842Z,27.42
2023-01-04T03:50:29.380Z,31.08
2023-01-04T03:52:56.948Z,25.92
2023-01-04T03:55:25.547Z,25.00
2023-01-04T03:57:52.594Z,24.95
2023-01-04T04:00:19.730Z,24.38
2023-01-04T04:02:47.848Z,22.52
2023-01-04T04:05:37.446Z,22.75
2023-01-04T04:08:23.025Z,22.92
2023-01-04T04:10:49.730Z,22.15
2023-01-04T04:13:16.371Z,24.10
2023-01-04T04:15:43.152Z,25.17
2023-01-04T04:18:09.986Z,19.17
2023-01-04T04:20:38.393Z,19.52
2023-01-04T04:23:05.112Z,18.15
2023-01-04T04:25:33.209Z,16.27
2023-01-04T04:28:00.016Z,16.27
2023-01-04T04:30:26.734Z,17.48
2023-01-04T04:32:53.396Z,18.05
2023-01-04T04:35:20.064Z,17.08
2023-01-04T04:37:48.796Z,16.70
2023-01-04T04:40:34.029Z,16.15
2023-01-04T04:43:00.677Z,17.10
2023-01-04T04:45:27.409Z,15.40
2023-01-04T04:47:54.369Z,15.30
2023-01-04T04:50:21.109Z,15.35
2023-01-04T04:52:54.072Z,16.15
2023-01-04T04:55:22.775Z,15.88
2023-01-04T04:57:49.460Z,15.43
2023-01-04T05:00:16.572Z,15.60
2023-01-04T05:02:43.833Z,18.27
2023-01-04T05:05:10.630Z,15.55
2023-01-04T05:07:37.328Z,18.40
2023-01-04T05:10:04.377Z,19.33
2023-01-04T05:12:54.346Z,16.20
2023-01-04T05:15:24.510Z,15.55
2023-01-04T05:17:51.198Z,16.55
2023-01-04T05:20:17.952Z,21.00
2023-01-04T05:22:44.633Z,19.55
2023-01-04T05:25:12.408Z,14.90
2023-01-04T05:27:39.244Z,15.40
2023-01-04T05:30:24.934Z,16.50
2023-01-04T05:32:52.544Z,14.20
2023-01-04T05:35:19.169Z,13.82
2023-01-04T05:37:45.800Z,15.38
2023-01-04T05:40:12.615Z,15.25
2023-01-04T05:42:39.289Z,14.35
2023-01-04T05:45:06.545Z,15.60
2023-01-04T05:47:33.894Z,14.15
2023-01-04T05:50:00.941Z,14.70
2023-01-04T05:52:28.116Z,20.35
2023-01-04T05:54:55.908Z,20.77
2023-01-04T05:57:22.706Z,26.33
2023-01-04T05:59:49.474Z,32.05
2023-01-04T06:02:19.013Z,28.88
2023-01-04T06:04:46.098Z,28.58
2023-01-04T06:07:13.137Z,27.88
2023-01-04T06:09:40.235Z,34.08
2023-01-04T06:12:07.572Z,43.03
2023-01-04T06:14:34.439Z,30.17
2023-01-04T06:17:01.302Z,23.52
2023-01-04T06:19:28.140Z,24.48
2023-01-04T06:21:54.853Z,29.33
2023-01-04T06:24:21.516Z,29.83
2023-01-04T06:26:48.389Z,31.33
2023-01-04T06:29:15.261Z,33.03
2023-01-04T06:31:42.030Z,34.92
2023-01-04T06:34:11.526Z,33.83
2023-01-04T06:36:38.375Z,36.22
2023-01-04T06:39:05.438Z,29.20
2023-01-04T06:41:32.105Z,29.35
2023-01-04T06:43:59.739Z,29.55
2023-01-04T06:46:26.820Z,31.98
2023-01-04T06:48:54.145Z,27.92
2023-01-04T06:51:21.548Z,31.00
2023-01-04T06:53:48.625Z,27.58
2023-01-04T06:56:17.134Z,28.48
2023-01-04T06:58:43.826Z,34.15
2023-01-04T07:01:10.749Z,36.42
2023-01-04T07:03:37.417Z,37.05
2023-01-04T07:06:06.252Z,37.10
2023-01-04T07:08:34.032Z,34.22
2023-01-04T07:11:01.395Z,31.42
2023-01-04T07:13:28.242Z,33.97
2023-01-04T07:15:55.288Z,30.38
2023-01-04T07:18:22.293Z,32.45
2023-01-04T07:20:49.210Z,33.47
2023-01-04T07:23:15.908Z,30.65
2023-01-04T07:25:42.561Z,31.77
2023-01-04T07:28:09.311Z,29.58
2023-01-04T07:30:36.056Z,31.02
2023-01-04T07:33:02.890Z,28.95
2023-01-04T07:35:29.737Z,26.52
2023-01-04T07:37:59.132Z,28.38
2023-01-04T07:40:27.110Z,25.35
2023-01-04T07:42:57.409Z,26.83
2023-01-04T07:45:24.668Z,27.00
2023-01-04T07:47:51.287Z,29.77
2023-01-04T07:50:18.039Z,30.50
2023-01-04T07:52:44.697Z,29.77
2023-01-04T07:55:11.617Z,32.33
2023-01-04T07:57:38.366Z,31.67
2023-01-04T08:00:05.582Z,29.48
2023-01-04T08:02:34.688Z,31.92
2023-01-04T08:05:02.197Z,33.05
2023-01-04T08:07:29.389Z,39.25
2023-01-04T08:09:56.573Z,34.58
2023-01-04T08:12:23.213Z,34.38
2023-01-04T08:14:50.012Z,34.15
2023-01-04T08:17:16.703Z,37.88
2023-01-04T08:19:43.401Z,36.88
2023-01-04T08:22:10.118Z,34.92
2023-01-04T08:24:36.811Z,36.38
2023-01-04T08:27:04.020Z,30.48
2023-01-04T08:29:34.774Z,37.40
2023-01-04T08:32:02.353Z,29.45
2023-01-04T08:34:30.011Z,32.67
2023-01-04T08:36:56.766Z,31.98
2023-01-04T08:39:23.412Z,29.40
2023-01-04T08:42:02.627Z,30.65
2023-01-04T08:44:37.546Z,34.13
2023-01-04T08:47:04.462Z,32.60
2023-01-04T08:49:31.325Z,31.65
2023-01-04T08:51:58.014Z,33.33
2023-01-04T08:54:24.741Z,30.80
2023-01-04T08:56:51.451Z,33.15
2023-01-04T08:59:20.491Z,37.95
2023-01-04T09:01:47.506Z,32.33
2023-01-04T09:04:14.257Z,28.17
2023-01-04T09:06:41.014Z,28.02
2023-01-04T09:09:07.676Z,26.65
2023-01-04T09:11:35.410Z,31.40
2023-01-04T09:14:07.844Z,22.20
2023-01-04T09:16:35.959Z,17.40
2023-01-04T09:19:02.753Z,21.73
2023-01-04T09:21:29.561Z,31.83
2023-01-04T09:23:58.717Z,24.30
2023-01-04T09:26:25.554Z,24.23
2023-01-04T09:28:53.987Z,15.00
2023-01-04T09:31:24.229Z,15.52
2023-01-04T09:36:38.123Z,14.10
2023-01-04T09:39:06.236Z,13.70
2023-01-04T09:41:39.377Z,14.70
2023-01-04T09:44:09.065Z,12.35
2023-01-04T09:47:00.987Z,13.93
2023-01-04T09:49:41.746Z,11.80
2023-01-04T09:52:15.502Z,11.48
2023-01-04T09:54:49.534Z,12.80
2023-01-04T09:57:29.447Z,12.40
2023-01-04T10:00:17.854Z,13.57
2023-01-04T10:02:50.172Z,10.50
2023-01-04T10:05:23.002Z,12.85
2023-01-04T10:07:49.917Z,14.35
2023-01-04T10:10:19.994Z,13.32
2023-01-04T10:13:04.085Z,16.55
2023-01-04T10:15:55.714Z,15.50
2023-01-04T10:21:33.532Z,10.45
2023-01-04T10:24:19.087Z,9.60
2023-01-04T10:26:47.564Z,8.75
2023-01-04T10:29:27.081Z,10.13
2023-01-04T10:31:58.386Z,8.98
2023-01-04T10:34:39.463Z,8.45
2023-01-04T10:37:23.277Z,8.50
2023-01-04T10:39:55.695Z,7.38
2023-01-04T10:42:37.954Z,9.50
2023-01-04T10:45:31.328Z,8.43
2023-01-04T10:48:22.047Z,9.43
2023-01-04T10:50:48.687Z,9.38
2023-01-04T10:53:18.106Z,10.43
2023-01-04T10:56:24.109Z,11.45
2023-01-04T10:59:22.875Z,9.60
2023-01-04T11:01:57.709Z,9.73
2023-01-04T11:04:41.097Z,7.25
2023-01-04T11:07:19.670Z,8.10
2023-01-04T11:09:47.523Z,8.63
2023-01-04T11:12:16.689Z,7.55
2023-01-04T11:14:43.383Z,8.23
2023-01-04T11:17:11.457Z,10.07
2023-01-04T11:19:38.249Z,7.90
2023-01-04T11:22:22.101Z,9.10
2023-01-04T11:25:33.103Z,8.40
2023-01-04T11:27:48.971Z,8.32
2023-01-04T11:30:27.535Z,8.68
2023-01-04T11:33:11.108Z,8.75
2023-01-04T11:35:43.487Z,8.13
2023-01-04T11:38:16.061Z,9.20
2023-01-04T11:40:43.336Z,8.43
2023-01-04T11:43:20.347Z,10.32
2023-01-04T11:46:13.521Z,14.13
2023-01-04T11:48:42.591Z,13.48
2023-01-04T11:51:40.987Z,9.20
2023-01-04T11:54:13.631Z,8.07
2023-01-04T11:57:03.641Z,9.20
2023-01-04T11:59:32.806Z,7.82
2023-01-04T12:02:58.380Z,8.35
2023-01-04T12:05:28.960Z,8.13
2023-01-04T12:07:56.648Z,9.43
2023-01-04T12:10:27.128Z,10.85
2023-01-04T12:12:55.232Z,9.68
2023-01-04T12:15:35.721Z,10.32
2023-01-04T12:18:15.959Z,8.80
2023-01-04T12:20:42.653Z,8.02
2023-01-04T12:23:11.160Z,8.10
2023-01-04T12:26:04.375Z,8.90
2023-01-04T12:28:35.271Z,8.60
2023-01-04T12:31:20.784Z,8.82
2023-01-04T12:33:58.793Z,8.00
2023-01-04T12:36:40.230Z,7.53
2023-01-04T12:39:13.056Z,9.68
2023-01-04T12:42:01.782Z,8.40
2023-01-04T12:44:37.629Z,10.88
2023-01-04T12:47:37.979Z,8.50
2023-01-04T12:50:05.039Z,9.68
2023-01-04T12:52:42.999Z,9.20
2023-01-04T12:55:25.686Z,8.32
2023-01-04T12:57:52.585Z,8.77
2023-01-04T13:00:20.025Z,10.15
2023-01-04T13:02:51.209Z,8.63
2023-01-04T13:08:11.133Z,10.60
2023-01-04T13:10:44.329Z,9.75
2023-01-04T13:13:43.102Z,9.15
2023-01-04T13:16:32.642Z,9.48
2023-01-04T13:19:01.914Z,9.35
2023-01-04T13:21:40.224Z,10.00
2023-01-04T13:24:24.690Z,7.90
2023-01-04T13:26:52.183Z,9.80
2023-01-04T13:29:21.364Z,8.88
2023-01-04T13:31:51.003Z,9.07
2023-01-04T13:34:26.742Z,9.18
2023-01-04T13:37:11.057Z,11.25
2023-01-04T13:39:42.314Z,9.30
2023-01-04T13:42:29.736Z,6.97
2023-01-04T13:45:21.553Z,10.20
2023-01-04T13:47:50.996Z,11.05
2023-01-04T13:50:40.221Z,6.95
2023-01-04T13:53:08.868Z,10.32
2023-01-04T13:55:37.996Z,8.85
2023-01-04T13:58:07.293Z,18.50
2023-01-04T14:03:21.765Z,8.57
2023-01-04T14:05:50.231Z,9.07
2023-01-04T14:08:29.957Z,7.93
2023-01-04T14:10:57.696Z,8.77
2023-01-04T14:13:24.523Z,9.57
2023-01-04T14:16:26.774Z,10.05
2023-01-04T14:18:53.427Z,9.13
2023-01-04T14:21:34.549Z,10.77
2023-01-04T14:24:01.478Z,10.60
2023-01-04T14:26:33.283Z,11.45
2023-01-04T14:29:22.986Z,9.63
2023-01-04T14:31:50.508Z,10.13
2023-01-04T14:34:17.291Z,12.05
2023-01-04T14:36:44.014Z,16.00
2023-01-04T14:39:16.668Z,10.15
2023-01-04T14:41:53.007Z,8.32
2023-01-04T14:44:22.247Z,12.82
2023-01-04T14:46:52.583Z,9.20
2023-01-04T14:49:22.006Z,9.13
2023-01-04T14:51:57.748Z,9.05
2023-01-04T14:54:26.095Z,11.52
2023-01-04T14:56:53.924Z,9.82
2023-01-04T14:59:23.837Z,9.52
2023-01-04T15:01:52.394Z,8.77
2023-01-04T15:04:19.264Z,8.30
2023-01-04T15:07:00.046Z,11.07
2023-01-04T15:09:27.543Z,8.65
2023-01-04T15:11:54.322Z,13.82
2023-01-04T15:14:21.001Z,20.42
2023-01-04T15:16:48.004Z,26.13
2023-01-04T15:19:15.188Z,12.88
2023-01-04T15:21:41.988Z,12.82
2023-01-04T15:24:10.036Z,12.18
2023-01-04T15:26:37.501Z,11.68
2023-01-04T15:29:06.827Z,12.32
2023-01-04T15:31:38.980Z,10.07
2023-01-04T15:34:06.356Z,13.45
2023-01-04T15:36:33.184Z,12.18
2023-01-04T15:38:59.858Z,11.90
2023-01-04T15:41:45.372Z,14.05
2023-01-04T15:44:12.250Z,11.88
2023-01-04T15:46:39.328Z,12.00
2023-01-04T15:49:09.479Z,11.55
2023-01-04T15:51:38.880Z,13.90
2023-01-04T15:54:05.572Z,12.73
2023-01-04T15:56:32.204Z,14.68
2023-01-04T15:58:58.868Z,12.77
2023-01-04T16:01:25.623Z,11.57
2023-01-04T16:03:54.201Z,12.48
2023-01-04T16:06:21.717Z,12.63
2023-01-04T16:08:49.943Z,13.15
2023-01-04T16:11:22.489Z,11.85
2023-01-04T16:13:50.936Z,11.15
2023-01-04T16:16:19.065Z,13.80
2023-01-04T16:18:50.810Z,12.57
2023-01-04T16:21:21.190Z,12.10
2023-01-04T16:24:01.712Z,12.82
2023-01-04T16:26:31.830Z,15.88
2023-01-04T16:29:00.782Z,15.10
2023-01-04T16:31:35.923Z,12.80
2023-01-04T16:34:03.300Z,16.67
2023-01-04T16:36:30.224Z,15.80
2023-01-04T16:38:57.358Z,15.73
2023-01-04T16:41:27.197Z,13.90
2023-01-04T16:43:55.599Z,13.55
2023-01-04T16:46:26.541Z,13.30
2023-01-04T16:48:59.078Z,12.45
2023-01-04T16:51:28.173Z,15.00
2023-01-04T16:53:55.868Z,13.60
2023-01-04T16:56:24.063Z,14.48
2023-01-04T16:58:51.349Z,13.98
2023-01-04T17:01:23.093Z,18.55
2023-01-04T17:03:51.417Z,18.38
2023-01-04T17:06:20.313Z,16.48
2023-01-04T17:08:48.280Z,17.60
2023-01-04T17:14:07.461Z,17.23
2023-01-04T17:16:35.182Z,19.33
2023-01-04T17:19:02.482Z,19.92
2023-01-04T17:21:34.676Z,19.08
2023-01-04T17:24:01.966Z,12.43
2023-01-04T17:26:30.354Z,12.52
2023-01-04T17:28:58.842Z,14.38
2023-01-04T17:31:30.976Z,16.20
2023-01-04T17:33:57.751Z,12.65
2023-01-04T17:36:24.735Z,12.73
2023-01-04T17:38:51.377Z,14.82
2023-01-04T17:41:22.313Z,14.90
2023-01-04T17:43:53.821Z,14.60
2023-01-04T17:46:24.134Z,14.25
2023-01-04T17:49:17.838Z,13.45
2023-01-04T17:51:40.029Z,13.82
2023-01-04T17:54:08.410Z,13.93
2023-01-04T17:56:37.171Z,13.32
2023-01-04T17:59:06.836Z,15.20
2023-01-04T18:01:34.882Z,15.90
2023-01-04T18:04:02.787Z,13.10
2023-01-04T18:06:51.151Z,12.38
2023-01-04T18:09:22.184Z,12.65
2023-01-04T18:11:51.217Z,17.48
2023-01-04T18:14:17.992Z,23.20
2023-01-04T18:16:57.612Z,13.55
2023-01-04T18:19:29.071Z,17.23
2023-01-04T18:21:56.459Z,20.45
2023-01-04T18:24:39.390Z,17.35
2023-01-04T18:27:25.537Z,15.50
2023-01-04T18:29:54.463Z,14.95
2023-01-04T18:32:22.388Z,14.38
2023-01-04T18:34:49.317Z,13.25
2023-01-04T18:37:18.630Z,15.77
2023-01-04T18:39:45.792Z,14.77
2023-01-04T18:42:13.744Z,16.42
2023-01-04T18:44:47.443Z,14.05
2023-01-04T18:47:16.310Z,15.52
2023-01-04T18:49:43.091Z,16.17
2023-01-04T18:52:09.708Z,17.00
2023-01-04T18:54:37.046Z,19.40
2023-01-04T18:57:05.131Z,16.80
2023-01-04T18:59:31.922Z,17.25
2023-01-04T19:02:01.623Z,16.48
2023-01-04T19:04:34.108Z,14.75
2023-01-04T19:07:01.358Z,14.10
2023-01-04T19:09:28.143Z,14.18
2023-01-04T19:11:54.842Z,13.93
2023-01-04T19:14:24.478Z,13.85
2023-01-04T19:16:53.199Z,17.30
2023-01-04T19:19:20.093Z,18.67
2023-01-04T19:21:46.739Z,15.70
2023-01-04T19:24:13.392Z,15.30
2023-01-04T19:26:40.115Z,15.18
2023-01-04T19:29:08.678Z,14.02
2023-01-04T19:31:35.787Z,16.10
2023-01-04T19:34:02.604Z,17.52
2023-01-04T19:36:29.363Z,15.35
2023-01-04T19:38:56.761Z,16.70
2023-01-04T19:41:33.410Z,15.68
2023-01-04T19:44:05.883Z,15.80
2023-01-04T19:46:32.779Z,14.05
2023-01-04T19:48:59.868Z,13.98
2023-01-04T19:51:28.051Z,15.20
2023-01-04T19:53:54.844Z,11.77
2023-01-04T19:56:21.545Z,10.73
2023-01-04T19:58:48.298Z,11.57
2023-01-04T20:01:16.677Z,13.65
2023-01-04T20:03:44.051Z,14.07
2023-01-04T20:06:11.829Z,12.70
2023-01-04T20:08:39.242Z,13.30
2023-01-04T20:11:06.742Z,12.18
2023-01-04T20:13:34.306Z,12.13
2023-01-04T20:16:01.967Z,12.32
2023-01-04T20:18:28.771Z,12.82
2023-01-04T20:20:55.446Z,13.48
2023-01-04T20:23:22.713Z,11.07
2023-01-04T20:25:51.946Z,10.77
2023-01-04T20:28:21.201Z,10.35
2023-01-04T20:33:16.459Z,14.65
2023-01-04T20:35:44.371Z,12.30
2023-01-04T20:38:11.844Z,12.00
2023-01-04T20:40:39.319Z,13.27
2023-01-04T20:43:25.654Z,17.25
2023-01-04T20:45:52.453Z,15.43
2023-01-04T20:48:19.180Z,21.85
2023-01-04T20:50:45.953Z,14.98
2023-01-04T20:53:15.973Z,16.25
2023-01-04T20:55:44.235Z,12.50
2023-01-04T20:58:13.490Z,17.38
2023-01-04T21:03:09.358Z,37.85
2023-01-04T21:08:04.128Z,34.97
2023-01-04T21:10:30.908Z,26.25
2023-01-04T21:12:57.595Z,22.58
2023-01-04T21:15:24.332Z,24.67
2023-01-04T21:17:51.140Z,23.30
2023-01-04T21:20:17.820Z,25.13
2023-01-04T21:22:46.009Z,28.77
2023-01-04T21:25:12.679Z,22.95
2023-01-04T21:27:39.411Z,27.98
2023-01-04T21:30:06.529Z,25.52
2023-01-04T21:32:33.210Z,24.05
2023-01-04T21:34:59.912Z,21.25
2023-01-04T21:37:27.157Z,17.40
2023-01-04T21:39:53.825Z,18.98
2023-01-04T21:42:20.753Z,17.63
2023-01-04T21:44:47.446Z,16.83
2023-01-04T21:47:14.109Z,17.58
2023-01-04T21:49:43.940Z,15.32
2023-01-04T21:52:11.226Z,14.82
2023-01-04T21:54:38.865Z,15.80
2023-01-04T21:57:08.175Z,16.70
2023-01-04T22:02:02.234Z,16.55
2023-01-04T22:04:29.017Z,14.98
2023-01-04T22:06:55.750Z,16.23
2023-01-04T22:09:22.537Z,15.45
2023-01-04T22:11:50.309Z,16.42
2023-01-04T22:14:18.010Z,17.15
2023-01-04T22:16:44.817Z,15.95
2023-01-04T22:19:12.706Z,15.65
2023-01-04T22:21:39.997Z,20.63
2023-01-04T22:24:09.475Z,20.30
2023-01-04T22:26:36.449Z,25.38
2023-01-04T22:29:03.350Z,20.75
2023-01-04T22:31:30.115Z,21.27
2023-01-04T22:33:57.073Z,21.77
2023-01-04T22:36:24.000Z,19.92
2023-01-04T22:38:55.876Z,19.58
2023-01-04T22:41:25.074Z,21.77
2023-01-04T22:43:56.725Z,21.05
2023-01-04T22:46:24.696Z,21.63
2023-01-04T22:48:51.526Z,20.02
2023-01-04T22:51:20.651Z,19.17
2023-01-04T22:53:48.383Z,19.60
2023-01-04T22:56:19.617Z,26.40
2023-01-04T22:58:53.083Z,25.63
2023-01-04T23:01:22.102Z,26.08
2023-01-04T23:03:51.838Z,26.83
2023-01-04T23:06:19.131Z,23.90
2023-01-04T23:08:45.893Z,25.48
2023-01-04T23:11:15.936Z,24.80
2023-01-04T23:13:42.752Z,19.00
2023-01-04T23:16:14.456Z,19.17
2023-01-04T23:18:41.336Z,20.35
2023-01-04T23:21:08.933Z,19.13
2023-01-04T23:23:35.704Z,17.52
2023-01-04T23:26:15.722Z,19.92
2023-01-04T23:28:43.185Z,18.50
2023-01-04T23:31:12.332Z,18.05
2023-01-04T23:33:39.642Z,17.45
2023-01-04T23:36:09.399Z,16.90
2023-01-04T23:38:36.238Z,16.75
2023-01-04T23:41:02.964Z,17.02
2023-01-04T23:43:29.777Z,17.08
2023-01-04T23:45:56.422Z,16.67
2023-01-04T23:48:23.327Z,16.75
2023-01-04T23:50:56.817Z,17.08
2023-01-04T23:53:24.551Z,16.00
2023-01-04T23:55:59.540Z,18.00
2023-01-04T23:58:31.276Z,15.85
